sensor_id;sensor_type;location;lat;lon;timestamp;P1;durP1;ratioP1;P2;durP2;ratioP2
35667;SDS011;22158;59.280;17.806;2023-03-18T05:02:33;30.63;;;15.13;;
35667;SDS011;22158;59.280;17.806;2023-03-18T05:04:59;35.78;;;16.42;;
35667;SDS011;22158;59.280;17.806;2023-03-18T05:07:25;43.28;;;18.00;;
35667;SDS011;22158;59.280;17.806;2023-03-18T05:09:51;27.23;;;13.55;;
35667;SDS011;22158;59.280;17.806;2023-03-18T05:12:17;28.17;;;13.80;;
35667;SDS011;22158;59.280;17.806;2023-03-18T05:14:42;31.33;;;15.60;;
35667;SDS011;22158;59.280;17.806;2023-03-18T05:17:09;33.75;;;17.20;;
35667;SDS011;22158;59.280;17.806;2023-03-18T05:19:40;40.33;;;16.70;;
35667;SDS011;22158;59.280;17.806;2023-03-18T05:22:10;43.85;;;14.88;;
35667;SDS011;22158;59.280;17.806;2023-03-18T05:24:37;33.92;;;16.13;;
35667;SDS011;22158;59.280;17.806;2023-03-18T05:27:04;38.60;;;15.48;;
35667;SDS011;22158;59.280;17.806;2023-03-18T05:29:29;35.88;;;16.75;;
35667;SDS011;22158;59.280;17.806;2023-03-18T05:31:55;35.83;;;16.17;;
35667;SDS011;22158;59.280;17.806;2023-03-18T05:34:21;37.05;;;17.98;;
35667;SDS011;22158;59.280;17.806;2023-03-18T05:36:46;35.13;;;16.35;;
35667;SDS011;22158;59.280;17.806;2023-03-18T05:39:12;24.60;;;14.13;;
35667;SDS011;22158;59.280;17.806;2023-03-18T05:41:38;32.28;;;16.05;;
35667;SDS011;22158;59.280;17.806;2023-03-18T05:44:04;29.00;;;15.30;;
35667;SDS011;22158;59.280;17.806;2023-03-18T05:46:31;41.53;;;16.85;;
35667;SDS011;22158;59.280;17.806;2023-03-18T05:48:57;35.95;;;16.88;;
35667;SDS011;22158;59.280;17.806;2023-03-18T05:51:23;26.13;;;14.48;;
35667;SDS011;22158;59.280;17.806;2023-03-18T05:53:48;39.17;;;16.20;;
35667;SDS011;22158;59.280;17.806;2023-03-18T05:56:14;33.92;;;15.52;;
35667;SDS011;22158;59.280;17.806;2023-03-18T05:58:40;36.85;;;16.10;;
35667;SDS011;22158;59.280;17.806;2023-03-18T06:01:06;31.30;;;15.07;;
35667;SDS011;22158;59.280;17.806;2023-03-18T06:03:32;30.88;;;14.40;;
35667;SDS011;22158;59.280;17.806;2023-03-18T06:05:59;34.80;;;16.73;;
35667;SDS011;22158;59.280;17.806;2023-03-18T06:08:26;33.53;;;17.45;;
35667;SDS011;22158;59.280;17.806;2023-03-18T06:10:52;36.72;;;15.85;;
35667;SDS011;22158;59.280;17.806;2023-03-18T06:13:18;27.85;;;14.80;;
35667;SDS011;22158;59.280;17.806;2023-03-18T06:15:44;31.52;;;15.35;;
35667;SDS011;22158;59.280;17.806;2023-03-18T06:18:10;42.45;;;16.40;;
35667;SDS011;22158;59.280;17.806;2023-03-18T06:20:36;36.97;;;17.65;;
35667;SDS011;22158;59.280;17.806;2023-03-18T06:23:02;32.03;;;15.95;;
35667;SDS011;22158;59.280;17.806;2023-03-18T06:25:29;38.00;;;15.95;;
35667;SDS011;22158;59.280;17.806;2023-03-18T06:27:55;34.85;;;15.25;;
35667;SDS011;22158;59.280;17.806;2023-03-18T06:30:21;35.42;;;15.48;;
35667;SDS011;22158;59.280;17.806;2023-03-18T06:32:47;32.33;;;16.77;;
35667;SDS011;22158;59.280;17.806;2023-03-18T06:35:13;33.15;;;15.30;;
35667;SDS011;22158;59.280;17.806;2023-03-18T06:37:39;37.00;;;16.85;;
35667;SDS011;22158;59.280;17.806;2023-03-18T06:40:05;32.58;;;15.50;;
35667;SDS011;22158;59.280;17.806;2023-03-18T06:42:32;31.35;;;14.57;;
35667;SDS011;22158;59.280;17.806;2023-03-18T06:44:58;34.92;;;16.02;;
35667;SDS011;22158;59.280;17.806;2023-03-18T06:47:24;39.35;;;17.10;;
35667;SDS011;22158;59.280;17.806;2023-03-18T06:49:50;35.70;;;15.13;;
35667;SDS011;22158;59.280;17.806;2023-03-18T06:52:16;29.00;;;14.90;;
35667;SDS011;22158;59.280;17.806;2023-03-18T06:54:43;30.70;;;15.02;;
35667;SDS011;22158;59.280;17.806;2023-03-18T06:57:08;30.10;;;15.25;;
35667;SDS011;22158;59.280;17.806;2023-03-18T06:59:34;30.25;;;14.23;;
35667;SDS011;22158;59.280;17.806;2023-03-18T07:02:00;38.28;;;14.70;;
35667;SDS011;22158;59.280;17.806;2023-03-18T07:04:26;35.22;;;13.85;;
35667;SDS011;22158;59.280;17.806;2023-03-18T07:06:52;32.35;;;15.82;;
35667;SDS011;22158;59.280;17.806;2023-03-18T07:09:18;39.08;;;16.15;;
35667;SDS011;22158;59.280;17.806;2023-03-18T07:11:44;33.38;;;15.50;;
35667;SDS011;22158;59.280;17.806;2023-03-18T07:14:12;31.77;;;15.55;;
35667;SDS011;22158;59.280;17.806;2023-03-18T07:16:40;33.88;;;14.48;;
35667;SDS011;22158;59.280;17.806;2023-03-18T07:19:06;35.67;;;16.02;;
35667;SDS011;22158;59.280;17.806;2023-03-18T07:21:32;39.42;;;15.73;;
35667;SDS011;22158;59.280;17.806;2023-03-18T07:23:59;34.17;;;14.63;;
35667;SDS011;22158;59.280;17.806;2023-03-18T07:26:25;30.60;;;16.17;;
35667;SDS011;22158;59.280;17.806;2023-03-18T07:28:51;33.55;;;15.60;;
35667;SDS011;22158;59.280;17.806;2023-03-18T07:31:17;39.33;;;14.65;;
35667;SDS011;22158;59.280;17.806;2023-03-18T07:33:43;37.63;;;15.68;;
35667;SDS011;22158;59.280;17.806;2023-03-18T07:36:08;35.40;;;17.92;;
35667;SDS011;22158;59.280;17.806;2023-03-18T07:38:34;33.40;;;15.95;;
35667;SDS011;22158;59.280;17.806;2023-03-18T07:41:00;29.88;;;14.95;;
35667;SDS011;22158;59.280;17.806;2023-03-18T07:43:26;25.40;;;14.27;;
35667;SDS011;22158;59.280;17.806;2023-03-18T07:45:51;32.30;;;16.25;;
35667;SDS011;22158;59.280;17.806;2023-03-18T07:48:17;27.27;;;14.77;;
35667;SDS011;22158;59.280;17.806;2023-03-18T07:50:43;37.58;;;17.10;;
35667;SDS011;22158;59.280;17.806;2023-03-18T07:53:09;28.17;;;16.13;;
35667;SDS011;22158;59.280;17.806;2023-03-18T07:55:35;36.20;;;16.77;;
35667;SDS011;22158;59.280;17.806;2023-03-18T07:58:01;36.83;;;15.57;;
35667;SDS011;22158;59.280;17.806;2023-03-18T08:00:28;30.50;;;15.98;;
35667;SDS011;22158;59.280;17.806;2023-03-18T08:02:54;31.38;;;15.27;;
35667;SDS011;22158;59.280;17.806;2023-03-18T08:05:20;30.50;;;15.05;;
35667;SDS011;22158;59.280;17.806;2023-03-18T08:07:46;31.90;;;14.02;;
35667;SDS011;22158;59.280;17.806;2023-03-18T08:10:12;37.97;;;15.55;;
35667;SDS011;22158;59.280;17.806;2023-03-18T08:12:38;28.15;;;15.77;;
35667;SDS011;22158;59.280;17.806;2023-03-18T08:15:05;32.67;;;16.80;;
35667;SDS011;22158;59.280;17.806;2023-03-18T08:17:31;30.50;;;15.60;;
35667;SDS011;22158;59.280;17.806;2023-03-18T08:19:57;28.10;;;15.07;;
35667;SDS011;22158;59.280;17.806;2023-03-18T08:22:22;37.85;;;18.33;;
35667;SDS011;22158;59.280;17.806;2023-03-18T08:24:49;36.22;;;17.25;;
35667;SDS011;22158;59.280;17.806;2023-03-18T08:27:15;31.05;;;14.88;;
35667;SDS011;22158;59.280;17.806;2023-03-18T08:29:42;29.15;;;15.10;;
35667;SDS011;22158;59.280;17.806;2023-03-18T08:32:07;41.55;;;16.08;;
35667;SDS011;22158;59.280;17.806;2023-03-18T08:34:33;33.63;;;15.35;;
35667;SDS011;22158;59.280;17.806;2023-03-18T08:37:00;30.85;;;15.32;;
35667;SDS011;22158;59.280;17.806;2023-03-18T08:39:25;35.22;;;18.38;;
35667;SDS011;22158;59.280;17.806;2023-03-18T08:41:52;28.27;;;14.68;;
35667;SDS011;22158;59.280;17.806;2023-03-18T08:44:17;32.42;;;16.15;;
35667;SDS011;22158;59.280;17.806;2023-03-18T08:46:43;39.72;;;15.73;;
35667;SDS011;22158;59.280;17.806;2023-03-18T08:49:09;27.75;;;14.52;;
35667;SDS011;22158;59.280;17.806;2023-03-18T08:51:34;28.40;;;15.25;;
35667;SDS011;22158;59.280;17.806;2023-03-18T08:54:00;35.83;;;16.02;;
35667;SDS011;22158;59.280;17.806;2023-03-18T08:56:26;31.77;;;15.93;;
35667;SDS011;22158;59.280;17.806;2023-03-18T08:58:52;33.15;;;15.90;;
35667;SDS011;22158;59.280;17.806;2023-03-18T09:01:18;33.28;;;14.70;;
35667;SDS011;22158;59.280;17.806;2023-03-18T09:03:46;35.63;;;15.73;;
35667;SDS011;22158;59.280;17.806;2023-03-18T09:06:12;31.00;;;16.08;;
35667;SDS011;22158;59.280;17.806;2023-03-18T09:08:38;27.33;;;13.88;;
35667;SDS011;22158;59.280;17.806;2023-03-18T09:11:04;28.00;;;15.82;;
35667;SDS011;22158;59.280;17.806;2023-03-18T09:13:32;24.85;;;15.05;;
35667;SDS011;22158;59.280;17.806;2023-03-18T09:15:58;30.25;;;17.50;;
35667;SDS011;22158;59.280;17.806;2023-03-18T09:18:24;33.13;;;14.57;;
35667;SDS011;22158;59.280;17.806;2023-03-18T09:20:50;32.60;;;15.40;;
35667;SDS011;22158;59.280;17.806;2023-03-18T09:23:16;28.73;;;14.02;;
35667;SDS011;22158;59.280;17.806;2023-03-18T09:25:42;27.50;;;14.02;;
35667;SDS011;22158;59.280;17.806;2023-03-18T09:28:10;32.45;;;15.40;;
35667;SDS011;22158;59.280;17.806;2023-03-18T09:30:36;25.80;;;13.63;;
35667;SDS011;22158;59.280;17.806;2023-03-18T09:33:03;28.90;;;14.93;;
35667;SDS011;22158;59.280;17.806;2023-03-18T09:35:30;25.27;;;14.07;;
35667;SDS011;22158;59.280;17.806;2023-03-18T09:37:56;28.60;;;13.90;;
35667;SDS011;22158;59.280;17.806;2023-03-18T09:45:25;22.05;;;12.45;;
35667;SDS011;22158;59.280;17.806;2023-03-18T09:48:00;26.30;;;13.25;;
35667;SDS011;22158;59.280;17.806;2023-03-18T09:50:41;22.52;;;13.57;;
35667;SDS011;22158;59.280;17.806;2023-03-18T09:56:25;23.55;;;12.88;;
35667;SDS011;22158;59.280;17.806;2023-03-18T09:59:00;19.13;;;10.73;;
35667;SDS011;22158;59.280;17.806;2023-03-18T10:01:30;25.52;;;12.68;;
35667;SDS011;22158;59.280;17.806;2023-03-18T10:06:31;21.00;;;12.95;;
35667;SDS011;22158;59.280;17.806;2023-03-18T10:11:45;25.23;;;12.43;;
35667;SDS011;22158;59.280;17.806;2023-03-18T10:14:28;25.85;;;14.02;;
35667;SDS011;22158;59.280;17.806;2023-03-18T10:19:30;23.00;;;12.73;;
35667;SDS011;22158;59.280;17.806;2023-03-18T10:24:41;22.40;;;12.98;;
35667;SDS011;22158;59.280;17.806;2023-03-18T10:27:18;19.10;;;11.90;;
35667;SDS011;22158;59.280;17.806;2023-03-18T10:29:54;28.15;;;12.23;;
35667;SDS011;22158;59.280;17.806;2023-03-18T10:35:25;23.27;;;12.43;;
35667;SDS011;22158;59.280;17.806;2023-03-18T10:38:11;20.92;;;12.95;;
35667;SDS011;22158;59.280;17.806;2023-03-18T10:40:47;21.90;;;12.40;;
35667;SDS011;22158;59.280;17.806;2023-03-18T10:43:17;19.85;;;11.82;;
35667;SDS011;22158;59.280;17.806;2023-03-18T10:45:57;22.67;;;12.30;;
35667;SDS011;22158;59.280;17.806;2023-03-18T10:48:43;21.77;;;12.52;;
35667;SDS011;22158;59.280;17.806;2023-03-18T10:54:10;22.27;;;12.40;;
35667;SDS011;22158;59.280;17.806;2023-03-18T10:56:56;19.65;;;10.73;;
35667;SDS011;22158;59.280;17.806;2023-03-18T10:59:23;22.70;;;12.50;;
35667;SDS011;22158;59.280;17.806;2023-03-18T11:01:52;23.38;;;11.48;;
35667;SDS011;22158;59.280;17.806;2023-03-18T11:04:22;24.67;;;13.02;;
35667;SDS011;22158;59.280;17.806;2023-03-18T11:06:50;25.08;;;14.57;;
35667;SDS011;22158;59.280;17.806;2023-03-18T11:09:32;25.33;;;14.25;;
35667;SDS011;22158;59.280;17.806;2023-03-18T11:12:13;23.00;;;14.55;;
35667;SDS011;22158;59.280;17.806;2023-03-18T11:14:45;27.92;;;13.38;;
35667;SDS011;22158;59.280;17.806;2023-03-18T11:17:24;22.50;;;12.32;;
35667;SDS011;22158;59.280;17.806;2023-03-18T11:22:30;23.48;;;13.55;;
35667;SDS011;22158;59.280;17.806;2023-03-18T11:25:13;25.05;;;13.35;;
35667;SDS011;22158;59.280;17.806;2023-03-18T11:27:49;25.73;;;12.38;;
35667;SDS011;22158;59.280;17.806;2023-03-18T11:30:20;32.08;;;16.27;;
35667;SDS011;22158;59.280;17.806;2023-03-18T11:32:49;29.10;;;13.27;;
35667;SDS011;22158;59.280;17.806;2023-03-18T11:35:18;27.63;;;13.00;;
35667;SDS011;22158;59.280;17.806;2023-03-18T11:37:46;28.58;;;13.38;;
35667;SDS011;22158;59.280;17.806;2023-03-18T11:40:19;23.02;;;13.43;;
35667;SDS011;22158;59.280;17.806;2023-03-18T11:42:57;27.25;;;13.63;;
35667;SDS011;22158;59.280;17.806;2023-03-18T11:45:41;23.73;;;12.98;;
35667;SDS011;22158;59.280;17.806;2023-03-18T11:48:13;23.48;;;12.82;;
35667;SDS011;22158;59.280;17.806;2023-03-18T11:50:52;24.27;;;13.43;;
35667;SDS011;22158;59.280;17.806;2023-03-18T11:53:28;22.77;;;12.57;;
35667;SDS011;22158;59.280;17.806;2023-03-18T11:56:25;25.85;;;12.75;;
35667;SDS011;22158;59.280;17.806;2023-03-18T11:59:00;22.65;;;12.65;;
35667;SDS011;22158;59.280;17.806;2023-03-18T12:07:44;26.98;;;13.30;;
35667;SDS011;22158;59.280;17.806;2023-03-18T12:15:34;25.23;;;12.95;;
35667;SDS011;22158;59.280;17.806;2023-03-18T12:18:22;22.90;;;12.40;;
35667;SDS011;22158;59.280;17.806;2023-03-18T12:21:08;22.63;;;14.43;;
35667;SDS011;22158;59.280;17.806;2023-03-18T12:30:00;24.73;;;13.63;;
35667;SDS011;22158;59.280;17.806;2023-03-18T12:41:04;25.52;;;13.82;;
35667;SDS011;22158;59.280;17.806;2023-03-18T12:49:20;28.20;;;14.95;;
35667;SDS011;22158;59.280;17.806;2023-03-18T12:54:38;31.58;;;15.68;;
35667;SDS011;22158;59.280;17.806;2023-03-18T12:57:19;33.33;;;16.83;;
35667;SDS011;22158;59.280;17.806;2023-03-18T13:00:00;34.45;;;16.52;;
35667;SDS011;22158;59.280;17.806;2023-03-18T13:02:38;31.25;;;17.05;;
35667;SDS011;22158;59.280;17.806;2023-03-18T13:05:16;36.25;;;17.05;;
35667;SDS011;22158;59.280;17.806;2023-03-18T13:07:54;32.30;;;17.30;;
35667;SDS011;22158;59.280;17.806;2023-03-18T13:10:29;37.75;;;17.50;;
35667;SDS011;22158;59.280;17.806;2023-03-18T13:12:58;33.13;;;15.63;;
35667;SDS011;22158;59.280;17.806;2023-03-18T13:15:40;37.85;;;18.27;;
35667;SDS011;22158;59.280;17.806;2023-03-18T13:18:20;33.90;;;17.90;;
35667;SDS011;22158;59.280;17.806;2023-03-18T13:31:26;40.70;;;18.55;;
35667;SDS011;22158;59.280;17.806;2023-03-18T13:34:17;35.00;;;17.50;;
35667;SDS011;22158;59.280;17.806;2023-03-18T13:37:04;33.92;;;18.92;;
35667;SDS011;22158;59.280;17.806;2023-03-18T13:39:47;26.23;;;15.77;;
35667;SDS011;22158;59.280;17.806;2023-03-18T13:42:25;31.23;;;14.75;;
35667;SDS011;22158;59.280;17.806;2023-03-18T13:47:27;32.90;;;17.25;;
35667;SDS011;22158;59.280;17.806;2023-03-18T13:49:59;33.53;;;17.38;;
35667;SDS011;22158;59.280;17.806;2023-03-18T13:54:58;27.88;;;14.43;;
35667;SDS011;22158;59.280;17.806;2023-03-18T14:00:29;30.90;;;16.27;;
35667;SDS011;22158;59.280;17.806;2023-03-18T14:03:16;32.17;;;16.05;;
35667;SDS011;22158;59.280;17.806;2023-03-18T14:06:37;38.88;;;17.35;;
35667;SDS011;22158;59.280;17.806;2023-03-18T14:18:54;33.90;;;16.67;;
35667;SDS011;22158;59.280;17.806;2023-03-18T14:21:45;28.50;;;16.45;;
35667;SDS011;22158;59.280;17.806;2023-03-18T14:26:45;30.10;;;16.45;;
35667;SDS011;22158;59.280;17.806;2023-03-18T14:29:24;31.80;;;16.33;;
35667;SDS011;22158;59.280;17.806;2023-03-18T14:37:28;32.55;;;15.85;;
35667;SDS011;22158;59.280;17.806;2023-03-18T14:40:14;28.40;;;16.25;;
35667;SDS011;22158;59.280;17.806;2023-03-18T14:42:43;32.83;;;16.15;;
35667;SDS011;22158;59.280;17.806;2023-03-18T14:47:58;23.95;;;14.82;;
35667;SDS011;22158;59.280;17.806;2023-03-18T14:50:41;33.60;;;14.50;;
35667;SDS011;22158;59.280;17.806;2023-03-18T14:55:51;29.33;;;15.95;;
35667;SDS011;22158;59.280;17.806;2023-03-18T14:58:18;27.15;;;14.00;;
35667;SDS011;22158;59.280;17.806;2023-03-18T15:00:52;27.33;;;15.68;;
35667;SDS011;22158;59.280;17.806;2023-03-18T15:03:28;26.02;;;13.35;;
35667;SDS011;22158;59.280;17.806;2023-03-18T15:05:57;38.10;;;16.33;;
35667;SDS011;22158;59.280;17.806;2023-03-18T15:08:25;29.67;;;16.73;;
35667;SDS011;22158;59.280;17.806;2023-03-18T15:10:52;29.73;;;16.38;;
35667;SDS011;22158;59.280;17.806;2023-03-18T15:13:21;28.60;;;16.55;;
35667;SDS011;22158;59.280;17.806;2023-03-18T15:15:48;34.92;;;15.98;;
35667;SDS011;22158;59.280;17.806;2023-03-18T15:20:57;40.15;;;17.48;;
35667;SDS011;22158;59.280;17.806;2023-03-18T15:23:31;34.40;;;18.40;;
35667;SDS011;22158;59.280;17.806;2023-03-18T15:26:06;32.95;;;16.27;;
35667;SDS011;22158;59.280;17.806;2023-03-18T15:28:44;44.35;;;19.27;;
35667;SDS011;22158;59.280;17.806;2023-03-18T15:31:11;37.20;;;19.45;;
35667;SDS011;22158;59.280;17.806;2023-03-18T15:33:47;38.25;;;19.05;;
35667;SDS011;22158;59.280;17.806;2023-03-18T15:36:19;37.22;;;18.92;;
35667;SDS011;22158;59.280;17.806;2023-03-18T15:38:46;34.03;;;18.30;;
35667;SDS011;22158;59.280;17.806;2023-03-18T15:41:13;33.53;;;18.52;;
35667;SDS011;22158;59.280;17.806;2023-03-18T15:43:42;41.72;;;20.02;;
35667;SDS011;22158;59.280;17.806;2023-03-18T15:48:42;34.35;;;18.35;;
35667;SDS011;22158;59.280;17.806;2023-03-18T15:51:28;31.52;;;18.83;;
35667;SDS011;22158;59.280;17.806;2023-03-18T15:54:04;37.00;;;19.63;;
35667;SDS011;22158;59.280;17.806;2023-03-18T15:56:43;31.88;;;16.63;;
35667;SDS011;22158;59.280;17.806;2023-03-18T16:01:37;36.05;;;18.50;;
35667;SDS011;22158;59.280;17.806;2023-03-18T16:04:08;49.63;;;19.90;;
35667;SDS011;22158;59.280;17.806;2023-03-18T16:06:36;34.65;;;17.35;;
35667;SDS011;22158;59.280;17.806;2023-03-18T16:09:12;41.58;;;19.13;;
35667;SDS011;22158;59.280;17.806;2023-03-18T16:11:43;35.67;;;17.27;;
35667;SDS011;22158;59.280;17.806;2023-03-18T16:14:22;47.42;;;18.00;;
35667;SDS011;22158;59.280;17.806;2023-03-18T16:16:52;36.08;;;18.00;;
35667;SDS011;22158;59.280;17.806;2023-03-18T16:19:23;46.95;;;19.25;;
35667;SDS011;22158;59.280;17.806;2023-03-18T16:21:52;39.75;;;19.05;;
35667;SDS011;22158;59.280;17.806;2023-03-18T16:24:22;41.38;;;20.98;;
35667;SDS011;22158;59.280;17.806;2023-03-18T16:26:49;36.67;;;19.13;;
35667;SDS011;22158;59.280;17.806;2023-03-18T16:29:32;42.15;;;16.45;;
35667;SDS011;22158;59.280;17.806;2023-03-18T16:32:02;36.13;;;18.42;;
35667;SDS011;22158;59.280;17.806;2023-03-18T16:34:28;45.20;;;19.50;;
35667;SDS011;22158;59.280;17.806;2023-03-18T16:36:54;44.78;;;19.00;;
35667;SDS011;22158;59.280;17.806;2023-03-18T16:41:48;41.00;;;19.40;;
35667;SDS011;22158;59.280;17.806;2023-03-18T16:44:18;34.80;;;17.70;;
35667;SDS011;22158;59.280;17.806;2023-03-18T16:46:45;43.97;;;19.10;;
35667;SDS011;22158;59.280;17.806;2023-03-18T16:49:23;34.55;;;18.55;;
35667;SDS011;22158;59.280;17.806;2023-03-18T16:51:53;39.55;;;19.83;;
35667;SDS011;22158;59.280;17.806;2023-03-18T16:54:20;32.42;;;18.25;;
35667;SDS011;22158;59.280;17.806;2023-03-18T16:56:48;45.28;;;21.65;;
35667;SDS011;22158;59.280;17.806;2023-03-18T16:59:16;43.03;;;20.40;;
35667;SDS011;22158;59.280;17.806;2023-03-18T17:01:42;42.67;;;20.90;;
35667;SDS011;22158;59.280;17.806;2023-03-18T17:04:17;41.33;;;19.52;;
35667;SDS011;22158;59.280;17.806;2023-03-18T17:06:59;35.97;;;17.80;;
35667;SDS011;22158;59.280;17.806;2023-03-18T17:09:28;37.45;;;19.20;;
35667;SDS011;22158;59.280;17.806;2023-03-18T17:11:58;41.25;;;20.02;;
35667;SDS011;22158;59.280;17.806;2023-03-18T17:14:28;41.00;;;19.20;;
35667;SDS011;22158;59.280;17.806;2023-03-18T17:17:07;43.15;;;20.10;;
35667;SDS011;22158;59.280;17.806;2023-03-18T17:19:40;41.10;;;19.42;;
35667;SDS011;22158;59.280;17.806;2023-03-18T17:22:11;49.35;;;20.10;;
35667;SDS011;22158;59.280;17.806;2023-03-18T17:24:48;38.58;;;19.92;;
35667;SDS011;22158;59.280;17.806;2023-03-18T17:27:19;34.25;;;19.85;;
35667;SDS011;22158;59.280;17.806;2023-03-18T17:29:46;41.20;;;18.95;;
35667;SDS011;22158;59.280;17.806;2023-03-18T17:32:12;40.92;;;20.67;;
35667;SDS011;22158;59.280;17.806;2023-03-18T17:34:38;46.60;;;23.52;;
35667;SDS011;22158;59.280;17.806;2023-03-18T17:37:03;41.80;;;20.35;;
35667;SDS011;22158;59.280;17.806;2023-03-18T17:39:29;45.55;;;20.70;;
35667;SDS011;22158;59.280;17.806;2023-03-18T17:41:55;48.95;;;20.70;;
35667;SDS011;22158;59.280;17.806;2023-03-18T17:44:22;43.78;;;20.20;;
35667;SDS011;22158;59.280;17.806;2023-03-18T17:46:49;41.05;;;21.38;;
35667;SDS011;22158;59.280;17.806;2023-03-18T17:49:16;42.35;;;21.63;;
35667;SDS011;22158;59.280;17.806;2023-03-18T17:51:46;52.38;;;21.65;;
35667;SDS011;22158;59.280;17.806;2023-03-18T17:54:13;53.20;;;23.02;;
35667;SDS011;22158;59.280;17.806;2023-03-18T17:56:44;52.42;;;19.83;;
35667;SDS011;22158;59.280;17.806;2023-03-18T17:59:14;47.30;;;21.73;;
35667;SDS011;22158;59.280;17.806;2023-03-18T18:01:41;32.42;;;15.55;;
35667;SDS011;22158;59.280;17.806;2023-03-18T18:04:13;50.22;;;21.70;;
35667;SDS011;22158;59.280;17.806;2023-03-18T18:06:41;48.95;;;20.77;;
35667;SDS011;22158;59.280;17.806;2023-03-18T18:09:08;49.65;;;20.13;;
35667;SDS011;22158;59.280;17.806;2023-03-18T18:11:38;49.80;;;22.92;;
35667;SDS011;22158;59.280;17.806;2023-03-18T18:14:13;43.88;;;19.67;;
35667;SDS011;22158;59.280;17.806;2023-03-18T18:16:42;44.88;;;20.40;;
35667;SDS011;22158;59.280;17.806;2023-03-18T18:19:09;45.95;;;19.02;;
35667;SDS011;22158;59.280;17.806;2023-03-18T18:21:35;51.00;;;21.17;;
35667;SDS011;22158;59.280;17.806;2023-03-18T18:24:01;53.20;;;21.63;;
35667;SDS011;22158;59.280;17.806;2023-03-18T18:26:28;53.03;;;22.00;;
35667;SDS011;22158;59.280;17.806;2023-03-18T18:28:53;52.05;;;24.40;;
35667;SDS011;22158;59.280;17.806;2023-03-18T18:31:19;55.80;;;23.25;;
35667;SDS011;22158;59.280;17.806;2023-03-18T18:33:47;50.75;;;21.25;;
35667;SDS011;22158;59.280;17.806;2023-03-18T18:36:14;53.88;;;25.45;;
35667;SDS011;22158;59.280;17.806;2023-03-18T18:38:40;60.17;;;23.42;;
35667;SDS011;22158;59.280;17.806;2023-03-18T18:41:07;54.72;;;25.20;;
35667;SDS011;22158;59.280;17.806;2023-03-18T18:43:32;51.65;;;24.75;;
35667;SDS011;22158;59.280;17.806;2023-03-18T18:45:58;66.05;;;27.90;;
35667;SDS011;22158;59.280;17.806;2023-03-18T18:50:57;62.88;;;27.77;;
35667;SDS011;22158;59.280;17.806;2023-03-18T18:55:54;47.80;;;23.98;;
35667;SDS011;22158;59.280;17.806;2023-03-18T18:58:26;55.92;;;25.30;;
35667;SDS011;22158;59.280;17.806;2023-03-18T19:00:56;55.35;;;23.70;;
35667;SDS011;22158;59.280;17.806;2023-03-18T19:03:24;49.05;;;24.70;;
35667;SDS011;22158;59.280;17.806;2023-03-18T19:05:54;63.28;;;25.70;;
35667;SDS011;22158;59.280;17.806;2023-03-18T19:10:56;64.53;;;23.83;;
35667;SDS011;22158;59.280;17.806;2023-03-18T19:13:23;48.33;;;24.20;;
35667;SDS011;22158;59.280;17.806;2023-03-18T19:15:50;56.53;;;23.20;;
35667;SDS011;22158;59.280;17.806;2023-03-18T19:18:18;57.90;;;21.52;;
35667;SDS011;22158;59.280;17.806;2023-03-18T19:20:47;51.88;;;21.35;;
35667;SDS011;22158;59.280;17.806;2023-03-18T19:23:14;47.13;;;22.23;;
35667;SDS011;22158;59.280;17.806;2023-03-18T19:25:42;69.85;;;22.50;;
35667;SDS011;22158;59.280;17.806;2023-03-18T19:28:15;52.70;;;22.20;;
35667;SDS011;22158;59.280;17.806;2023-03-18T19:31:08;46.50;;;21.42;;
35667;SDS011;22158;59.280;17.806;2023-03-18T19:33:35;64.32;;;23.02;;
35667;SDS011;22158;59.280;17.806;2023-03-18T19:36:02;63.38;;;22.15;;
35667;SDS011;22158;59.280;17.806;2023-03-18T19:38:31;88.78;;;29.60;;
35667;SDS011;22158;59.280;17.806;2023-03-18T19:40:58;92.20;;;32.97;;
35667;SDS011;22158;59.280;17.806;2023-03-18T19:43:24;71.53;;;29.30;;
35667;SDS011;22158;59.280;17.806;2023-03-18T19:45:50;61.88;;;26.67;;
35667;SDS011;22158;59.280;17.806;2023-03-18T19:48:16;52.70;;;21.55;;
35667;SDS011;22158;59.280;17.806;2023-03-18T19:50:44;51.38;;;22.75;;
35667;SDS011;22158;59.280;17.806;2023-03-18T19:53:11;52.58;;;20.45;;
35667;SDS011;22158;59.280;17.806;2023-03-18T19:55:38;50.47;;;21.58;;
35667;SDS011;22158;59.280;17.806;2023-03-18T19:58:05;49.33;;;22.25;;
35667;SDS011;22158;59.280;17.806;2023-03-18T20:00:34;50.58;;;22.95;;
35667;SDS011;22158;59.280;17.806;2023-03-18T20:03:00;57.03;;;23.40;;
35667;SDS011;22158;59.280;17.806;2023-03-18T20:05:26;57.78;;;23.65;;
35667;SDS011;22158;59.280;17.806;2023-03-18T20:07:52;53.72;;;24.35;;
35667;SDS011;22158;59.280;17.806;2023-03-18T20:10:18;82.65;;;27.38;;
35667;SDS011;22158;59.280;17.806;2023-03-18T20:12:48;54.97;;;23.20;;
35667;SDS011;22158;59.280;17.806;2023-03-18T20:15:18;49.80;;;22.05;;
35667;SDS011;22158;59.280;17.806;2023-03-18T20:17:47;49.63;;;24.35;;
35667;SDS011;22158;59.280;17.806;2023-03-18T20:20:17;52.80;;;23.88;;
35667;SDS011;22158;59.280;17.806;2023-03-18T20:22:52;55.85;;;24.13;;
35667;SDS011;22158;59.280;17.806;2023-03-18T20:25:35;46.25;;;21.42;;
35667;SDS011;22158;59.280;17.806;2023-03-18T20:28:05;49.55;;;21.95;;
35667;SDS011;22158;59.280;17.806;2023-03-18T20:30:36;48.10;;;21.83;;
35667;SDS011;22158;59.280;17.806;2023-03-18T20:33:03;53.67;;;21.52;;
35667;SDS011;22158;59.280;17.806;2023-03-18T20:35:33;47.05;;;22.35;;
35667;SDS011;22158;59.280;17.806;2023-03-18T20:38:12;45.85;;;20.00;;
35667;SDS011;22158;59.280;17.806;2023-03-18T20:40:38;53.00;;;21.27;;
35667;SDS011;22158;59.280;17.806;2023-03-18T20:43:08;41.50;;;20.15;;
35667;SDS011;22158;59.280;17.806;2023-03-18T20:45:38;50.88;;;20.13;;
35667;SDS011;22158;59.280;17.806;2023-03-18T20:48:03;134.90;;;26.35;;
35667;SDS011;22158;59.280;17.806;2023-03-18T20:50:29;56.75;;;22.05;;
35667;SDS011;22158;59.280;17.806;2023-03-18T20:52:55;41.90;;;20.20;;
35667;SDS011;22158;59.280;17.806;2023-03-18T20:55:28;56.33;;;23.45;;
35667;SDS011;22158;59.280;17.806;2023-03-18T20:57:55;52.95;;;23.17;;
35667;SDS011;22158;59.280;17.806;2023-03-18T21:00:23;47.75;;;22.30;;
35667;SDS011;22158;59.280;17.806;2023-03-18T21:02:51;48.00;;;19.83;;
35667;SDS011;22158;59.280;17.806;2023-03-18T21:05:20;57.10;;;20.40;;
35667;SDS011;22158;59.280;17.806;2023-03-18T21:07:46;50.55;;;21.92;;
35667;SDS011;22158;59.280;17.806;2023-03-18T21:10:30;52.60;;;21.63;;
35667;SDS011;22158;59.280;17.806;2023-03-18T21:12:55;48.03;;;20.98;;
35667;SDS011;22158;59.280;17.806;2023-03-18T21:15:22;49.38;;;20.50;;
35667;SDS011;22158;59.280;17.806;2023-03-18T21:17:49;49.03;;;19.98;;
35667;SDS011;22158;59.280;17.806;2023-03-18T21:20:19;52.45;;;21.00;;
35667;SDS011;22158;59.280;17.806;2023-03-18T21:22:49;43.45;;;20.35;;
35667;SDS011;22158;59.280;17.806;2023-03-18T21:25:17;45.30;;;19.30;;
35667;SDS011;22158;59.280;17.806;2023-03-18T21:27:44;41.72;;;19.00;;